首页
METAR-TAF:

METAR-TAF

机场 :

里昂圣埃克絮佩里机场

里昂 / 圣·埃克苏佩里, 法国

纬度: 45-44N, 经度: 005-05E, 海拔: 248米

当前天气观测

该预报发布于28分钟前的06:30 UTC
风速2节,风向多变
温度 -1°C
湿度 100%
气压 1007 hPa
能見度: 0300
冻雾

METAR: LFLL 170630Z VRB02KT 0300 R35L/0450N R17R/0400N R35R/0400N R17L/0500N FZFG NSC M01/M01 Q1007 NOSIG

时间: 07:58 (06:58 UTC)

预报

该预报发布于1小时和58分钟前的05:00 UTC
预报有效从17日的 06点(UTC)到 18日的 12点(UTC)
风速3节,风向多变
能見度: 0500
散云层高于100英尺
冻雾
短暂存在
从 17日的 06点(UTC)到 17日的 09点(UTC)
能見度: 0300
成为
从 17日的 07点(UTC)到 17日的 09点(UTC)
成为
从 17日的 10点(UTC)到 17日的 12点(UTC)
能見度: 3000
阴天层高于500英尺
轻雾
成为
从 17日的 12点(UTC)到 17日的 14点(UTC)
能見度: 7000
多云层高于1000英尺
多云层高于3000英尺
阴天层高于6000英尺
几率 30% :
短暂存在
从 17日的 18点(UTC)到 18日的 06点(UTC)
能見度: 2000
小雪
成为
从 18日的 09点(UTC)到 18日的 12点(UTC)
多云层高于2000英尺

TAF: LFLL 170500Z 1706/1812 VRB03KT 0500 FZFG SCT001 TEMPO 1706/1709 0300 BECMG 1707/1709 FG BECMG 1710/1712 3000 BR OVC005 BECMG 1712/1714 7000 NSW BKN010 BKN030 OVC060 PROB30 TEMPO 1718/1806 2000 -SN BECMG 1809/1812 BKN020

超过4000个机场的气象观测和天气预报(METAR&TAF报告)。

可查询的气象台以黄色和红色小点在地图上表示。

将鼠标移到小点上方,可查看气象台名称。

然后点击查看天气观测和预报。

如需切换地图:点击带黑十字的绿色按钮放大地图;点击带横线的绿色按钮缩小地图;或者点击绿色箭头查看邻近地区的地图。


METAR-TAF: